createdAt,value
2023-05-10T09:33:47.213Z,2.50
2023-05-10T09:39:08.665Z,2.90
2023-05-10T09:44:30.022Z,2.13
2023-05-10T09:49:52.464Z,2.72
2023-05-10T09:55:14.175Z,4.10
2023-05-10T10:00:45.950Z,1.95
2023-05-10T10:06:15.887Z,3.75
2023-05-10T10:11:44.243Z,4.13
2023-05-10T10:17:08.717Z,2.97
2023-05-10T10:22:30.321Z,4.53
2023-05-10T10:27:54.782Z,4.65
2023-05-10T10:33:37.787Z,3.88
2023-05-10T10:39:04.305Z,1.83
2023-05-10T10:44:33.269Z,1.73
2023-05-10T10:50:05.216Z,2.33
2023-05-10T10:55:28.487Z,4.77
2023-05-10T11:00:49.637Z,2.95
2023-05-10T11:06:10.775Z,3.60
2023-05-10T11:11:32.616Z,3.17
2023-05-10T11:16:54.772Z,3.55
2023-05-10T11:22:16.164Z,2.50
2023-05-10T11:27:38.937Z,2.13
2023-05-10T11:33:00.620Z,2.92
2023-05-10T11:38:22.061Z,2.00
2023-05-10T11:43:43.415Z,3.17
2023-05-10T11:49:08.021Z,2.85
2023-05-10T11:54:28.811Z,1.55
2023-05-10T11:59:54.723Z,2.28
2023-05-10T12:05:15.911Z,4.55
2023-05-10T12:10:37.051Z,2.38
2023-05-10T12:16:02.061Z,3.55
2023-05-10T12:21:23.698Z,2.28
2023-05-10T12:32:41.985Z,2.03
2023-05-10T12:38:03.124Z,2.15
2023-05-10T12:43:24.196Z,4.57
2023-05-10T12:48:45.554Z,4.10
2023-05-10T12:54:10.936Z,4.10
2023-05-10T12:59:32.601Z,3.03
2023-05-10T13:04:54.249Z,3.28
2023-05-10T13:10:15.693Z,2.88
2023-05-10T13:15:36.884Z,4.13
2023-05-10T13:20:58.655Z,3.72
2023-05-10T13:26:21.086Z,2.33
2023-05-10T13:31:42.387Z,3.60
2023-05-10T13:37:03.336Z,4.00
2023-05-10T13:42:25.019Z,3.63
2023-05-10T13:47:46.403Z,3.80
2023-05-10T13:53:07.732Z,4.20
2023-05-10T13:58:28.888Z,4.13
2023-05-10T14:03:50.954Z,1.65
2023-05-10T14:09:12.280Z,4.15
2023-05-10T14:14:33.136Z,4.63
2023-05-10T14:19:54.533Z,4.68
2023-05-10T14:25:15.905Z,2.22
2023-05-10T14:30:37.758Z,4.20
2023-05-10T14:35:58.941Z,2.55
2023-05-10T14:41:20.106Z,2.25
2023-05-10T14:46:41.532Z,3.13
2023-05-10T14:52:03.033Z,2.08
2023-05-10T14:57:23.620Z,4.57
2023-05-10T15:02:44.835Z,6.45
2023-05-10T15:08:07.003Z,4.88
2023-05-10T15:13:28.259Z,3.92
2023-05-10T15:18:50.215Z,5.25
2023-05-10T15:24:11.617Z,5.75
2023-05-10T15:29:33.771Z,6.68
2023-05-10T15:34:55.415Z,4.73
2023-05-10T15:40:17.422Z,4.47
2023-05-10T15:45:40.114Z,4.25
2023-05-10T15:51:01.297Z,7.82
2023-05-10T15:56:22.548Z,5.05
2023-05-10T16:01:43.505Z,4.30
2023-05-10T16:07:04.812Z,6.32
2023-05-10T16:12:26.259Z,4.10
2023-05-10T16:17:47.538Z,6.85
2023-05-10T16:23:08.726Z,3.45
2023-05-10T16:28:29.764Z,5.43
2023-05-10T16:33:50.509Z,6.40
2023-05-10T16:39:11.503Z,4.10
2023-05-10T16:44:32.635Z,5.38
2023-05-10T16:49:53.299Z,8.77
2023-05-10T16:55:14.084Z,4.07
2023-05-10T17:00:35.053Z,4.80
2023-05-10T17:05:56.273Z,4.25
2023-05-10T17:11:17.343Z,6.70
2023-05-10T17:16:38.180Z,7.68
2023-05-10T17:21:59.216Z,3.38
2023-05-10T17:27:19.924Z,6.95
2023-05-10T17:32:41.234Z,5.82
2023-05-10T17:38:02.244Z,4.38
2023-05-10T17:43:23.503Z,6.68
2023-05-10T17:48:44.102Z,7.15
2023-05-10T17:54:04.902Z,10.20
2023-05-10T17:59:25.632Z,6.53
2023-05-10T18:04:46.855Z,7.28
2023-05-10T18:10:08.288Z,5.28
2023-05-10T18:15:28.819Z,5.70
2023-05-10T18:20:56.366Z,4.93
2023-05-10T18:26:18.191Z,4.55
2023-05-10T18:31:39.306Z,8.25
2023-05-10T18:37:00.004Z,8.15
2023-05-10T18:42:20.667Z,7.63
2023-05-10T18:47:41.501Z,7.03
2023-05-10T18:53:03.886Z,5.85
2023-05-10T18:58:25.983Z,4.78
2023-05-10T19:03:46.608Z,8.05
2023-05-10T19:09:08.661Z,6.15
2023-05-10T19:14:29.827Z,6.30
2023-05-10T19:19:50.833Z,6.57
2023-05-10T19:25:13.038Z,6.75
2023-05-10T19:30:34.021Z,8.93
2023-05-10T19:35:55.317Z,6.80
2023-05-10T19:41:16.101Z,7.50
2023-05-10T19:46:36.906Z,7.68
2023-05-10T19:51:57.621Z,8.63
2023-05-10T19:57:18.497Z,10.45
2023-05-10T20:02:39.630Z,8.68
2023-05-10T20:08:00.060Z,11.25
2023-05-10T20:13:20.809Z,6.20
2023-05-10T20:18:41.626Z,10.00
2023-05-10T20:24:02.528Z,7.85
2023-05-10T20:29:22.921Z,7.03
2023-05-10T20:34:44.169Z,11.77
2023-05-10T20:40:05.515Z,13.27
2023-05-10T20:45:26.416Z,6.70
2023-05-10T20:50:47.093Z,7.43
2023-05-10T20:56:07.980Z,5.97
2023-05-10T21:01:28.620Z,6.45
2023-05-10T21:06:49.435Z,8.05
2023-05-10T21:12:10.019Z,8.40
2023-05-10T21:17:30.517Z,8.50
2023-05-10T21:22:51.354Z,7.32
2023-05-10T21:28:11.986Z,9.18
2023-05-10T21:33:32.780Z,9.90
2023-05-10T21:38:53.385Z,9.77
2023-05-10T21:44:14.211Z,11.52
2023-05-10T21:49:34.952Z,12.95
2023-05-10T21:54:55.695Z,11.55
2023-05-10T22:00:17.444Z,12.35
2023-05-10T22:05:38.866Z,9.32
2023-05-10T22:11:00.032Z,16.15
2023-05-10T22:16:21.237Z,11.18
2023-05-10T22:21:42.595Z,12.90
2023-05-10T22:27:03.590Z,8.93
2023-05-10T22:32:24.271Z,9.07
2023-05-10T22:37:44.845Z,11.18
2023-05-10T22:43:05.524Z,10.32
2023-05-10T22:48:25.985Z,10.68
2023-05-10T22:53:46.737Z,8.77
2023-05-10T22:59:07.258Z,12.25
2023-05-10T23:04:28.090Z,9.48
2023-05-10T23:09:48.874Z,10.50
2023-05-10T23:15:10.082Z,8.07
2023-05-10T23:20:30.809Z,6.38
2023-05-10T23:25:51.587Z,8.25
2023-05-10T23:31:12.249Z,8.63
2023-05-10T23:36:33.522Z,8.65
2023-05-10T23:41:54.905Z,7.68
2023-05-10T23:47:15.631Z,5.20
2023-05-10T23:52:36.178Z,7.93
2023-05-10T23:57:57.016Z,3.90
